Time;durP1;ratioP1;P1;durP2;ratioP2;P2;SDS_P1;SDS_P2;PMS_P1;PMS_P2;Temp;Humidity;BMP_temperature;BMP_pressure;BME280_temperature;BME280_humidity;BME280_pressure;Samples;Min_cycle;Max_cycle;Signal;HPM_P1;HPM_P2
2021/04/09 00:02:57;;;;;;;2.63;1.33;;;18.90;25.70;;;;;;8458889;28;20222;-56
2021/04/09 00:06:57;;;;;;;3.97;1.77;;;18.80;26.10;;;;;;8465168;28;20388;-55
2021/04/09 00:10:58;;;;;;;2.60;1.73;;;18.80;25.70;;;;;;8460037;28;20035;-56
2021/04/09 00:14:58;;;;;;;3.00;1.90;;;18.80;25.80;;;;;;8458818;28;20434;-56
2021/04/09 00:18:59;;;;;;;1.47;1.33;;;18.80;25.70;;;;;;8460413;28;20042;-56
2021/04/09 00:23:00;;;;;;;1.92;1.60;;;18.80;25.70;;;;;;8459923;28;20118;-56
2021/04/09 00:27:00;;;;;;;2.20;1.70;;;18.70;26.10;;;;;;8462930;28;20034;-56
2021/04/09 00:31:01;;;;;;;3.23;1.57;;;18.70;25.70;;;;;;8484243;27;20027;-56
2021/04/09 00:35:02;;;;;;;3.70;1.77;;;18.70;25.70;;;;;;8477977;27;20025;-56
2021/04/09 00:39:05;;;;;;;3.67;2.15;;;18.70;25.80;;;;;;8458159;28;20036;-56
2021/04/09 00:43:07;;;;;;;2.92;1.73;;;18.70;25.80;;;;;;8463897;28;20487;-56
2021/04/09 00:47:08;;;;;;;4.00;1.90;;;18.60;25.80;;;;;;8459316;28;20032;-56
2021/04/09 00:51:09;;;;;;;3.20;1.53;;;18.60;25.80;;;;;;8457482;28;20174;-56
2021/04/09 00:55:10;;;;;;;2.13;1.60;;;18.60;25.80;;;;;;8459403;28;20036;-56
2021/04/09 00:59:11;;;;;;;3.17;1.67;;;18.60;25.80;;;;;;8463216;28;20067;-56
2021/04/09 01:03:12;;;;;;;3.53;1.80;;;18.50;25.80;;;;;;8457114;28;20042;-56
2021/04/09 01:07:12;;;;;;;2.63;1.93;;;18.50;25.80;;;;;;8481343;27;20096;-56
2021/04/09 01:11:13;;;;;;;5.37;2.00;;;18.50;25.80;;;;;;8479582;27;20028;-56
2021/04/09 01:15:16;;;;;;;3.00;1.93;;;18.50;25.90;;;;;;8457700;28;20522;-56
2021/04/09 01:19:30;;;;;;;2.42;1.88;;;18.50;25.80;;;;;;8462842;28;20070;-56
2021/04/09 01:23:54;;;;;;;3.22;2.03;;;18.40;25.80;;;;;;8455886;28;20039;-56
2021/04/09 01:28:18;;;;;;;2.50;1.98;;;18.50;25.90;;;;;;8458156;28;20070;-56
2021/04/09 01:32:19;;;;;;;5.68;2.10;;;18.50;25.90;;;;;;8456902;27;20035;-56
2021/04/09 01:36:25;;;;;;;3.23;1.90;;;18.50;25.80;;;;;;8459077;28;20104;-56
2021/04/09 01:40:33;;;;;;;3.75;2.00;;;18.40;25.80;;;;;;8462609;28;20055;-56
2021/04/09 01:44:37;;;;;;;2.72;1.50;;;18.50;25.80;;;;;;8456072;28;20043;-56
2021/04/09 01:48:41;;;;;;;2.63;1.90;;;18.50;25.80;;;;;;8457992;28;20042;-56
2021/04/09 01:52:44;;;;;;;4.13;1.90;;;18.50;25.80;;;;;;8457752;28;20036;-56
2021/04/09 01:56:45;;;;;;;3.22;1.85;;;18.50;25.80;;;;;;8455755;28;20426;-56
2021/04/09 02:00:46;;;;;;;2.50;1.40;;;18.50;25.80;;;;;;8462551;28;20047;-56
2021/04/09 02:04:49;;;;;;;1.67;1.45;;;18.50;25.80;;;;;;8457395;28;20114;-56
2021/04/09 02:08:50;;;;;;;2.30;1.55;;;18.50;25.80;;;;;;8455756;28;20039;-56
2021/04/09 02:12:52;;;;;;;2.93;1.57;;;18.50;25.80;;;;;;8457737;28;20054;-56
2021/04/09 02:16:54;;;;;;;2.53;1.70;;;18.40;25.80;;;;;;8461775;28;20051;-56
2021/04/09 02:21:00;;;;;;;2.75;1.75;;;18.40;25.80;;;;;;8455555;28;20030;-57
2021/04/09 02:25:00;;;;;;;2.58;1.65;;;18.40;25.80;;;;;;8478233;28;20444;-57
2021/04/09 02:29:03;;;;;;;2.73;1.87;;;18.30;25.80;;;;;;8479996;28;20035;-56
2021/04/09 02:33:03;;;;;;;3.38;1.63;;;18.40;26.30;;;;;;8455358;28;20032;-56
2021/04/09 02:37:04;;;;;;;5.00;2.70;;;18.30;25.80;;;;;;8466467;28;20091;-56
2021/04/09 02:41:06;;;;;;;3.63;1.90;;;18.30;25.90;;;;;;8463331;28;20123;-56
2021/04/09 02:45:08;;;;;;;2.70;1.83;;;18.30;25.90;;;;;;8461581;28;20494;-56
2021/04/09 02:49:13;;;;;;;2.35;1.70;;;18.30;25.90;;;;;;8462878;28;20028;-56
2021/04/09 02:53:17;;;;;;;2.20;1.70;;;18.20;25.90;;;;;;8467630;28;20024;-56
2021/04/09 02:57:21;;;;;;;3.80;2.20;;;18.20;25.90;;;;;;8461708;27;20039;-56
2021/04/09 03:01:23;;;;;;;4.13;2.00;;;18.20;25.90;;;;;;8462754;28;20514;-56
2021/04/09 03:05:24;;;;;;;2.70;1.70;;;18.20;25.90;;;;;;8460742;28;20040;-56
2021/04/09 03:09:25;;;;;;;2.57;1.90;;;18.20;25.90;;;;;;8462197;28;20036;-56
2021/04/09 03:13:25;;;;;;;2.50;1.77;;;18.20;25.90;;;;;;8466867;28;20063;-55
2021/04/09 03:17:30;;;;;;;3.67;1.97;;;18.20;25.90;;;;;;8460046;28;20066;-56
2021/04/09 03:21:31;;;;;;;2.83;1.73;;;18.10;25.90;;;;;;8462671;27;20048;-56
2021/04/09 03:25:32;;;;;;;3.07;2.07;;;18.10;25.90;;;;;;8462493;27;20118;-56
2021/04/09 03:29:33;;;;;;;;;;;18.10;25.90;;;;;;8464903;28;20024;-56
2021/04/09 03:33:33;;;;;;;2.53;1.98;;;18.10;25.90;;;;;;8462143;28;20283;-57
2021/04/09 03:37:34;;;;;;;3.20;2.27;;;18.10;25.90;;;;;;8461258;28;20445;-56
2021/04/09 03:41:35;;;;;;;2.40;1.70;;;18.10;25.90;;;;;;8468281;27;20047;-57
2021/04/09 03:45:36;;;;;;;4.17;2.13;;;18.10;25.90;;;;;;8499455;27;20122;-57
2021/04/09 03:49:36;;;;;;;3.87;1.70;;;18.00;25.90;;;;;;8460781;28;20051;-57
2021/04/09 03:53:38;;;;;;;3.27;2.03;;;18.00;26.00;;;;;;8459166;28;20476;-57
2021/04/09 03:57:38;;;;;;;2.28;1.70;;;18.00;26.00;;;;;;8460860;28;20051;-56
2021/04/09 04:01:39;;;;;;;2.53;1.63;;;18.00;26.00;;;;;;8460881;28;20472;-55
2021/04/09 04:05:39;;;;;;;2.87;2.03;;;18.00;26.00;;;;;;8463373;28;20034;-55
2021/04/09 04:09:40;;;;;;;4.27;2.00;;;18.00;26.00;;;;;;8460680;28;20063;-55
2021/04/09 04:13:41;;;;;;;2.73;1.70;;;18.00;26.00;;;;;;8460321;28;20046;-56
2021/04/09 04:17:41;;;;;;;2.87;1.67;;;18.10;26.00;;;;;;8458254;28;20386;-56
2021/04/09 04:21:42;;;;;;;3.20;2.10;;;18.10;26.00;;;;;;8464537;28;20141;-56
2021/04/09 04:25:42;;;;;;;2.80;1.90;;;18.20;26.00;;;;;;8459880;28;20031;-57
2021/04/09 04:29:43;;;;;;;3.10;1.90;;;18.20;25.90;;;;;;8457985;28;20118;-56
2021/04/09 04:33:43;;;;;;;3.77;1.93;;;18.30;25.90;;;;;;8459645;28;20043;-57
2021/04/09 04:37:44;;;;;;;3.07;1.83;;;18.30;25.80;;;;;;8460454;28;20039;-56
2021/04/09 04:41:46;;;;;;;2.47;1.57;;;18.40;25.90;;;;;;8461290;28;20024;-56
2021/04/09 04:45:47;;;;;;;3.58;1.83;;;18.50;25.90;;;;;;8483046;27;20035;-57
2021/04/09 04:49:48;;;;;;;3.42;1.80;;;18.50;25.80;;;;;;8478548;27;20027;-56
2021/04/09 04:53:48;;;;;;;2.70;2.00;;;18.50;25.80;;;;;;8457453;28;20467;-57
2021/04/09 04:57:49;;;;;;;3.43;1.97;;;18.50;25.80;;;;;;8462359;28;20048;-56
2021/04/09 05:01:49;;;;;;;2.30;1.47;;;18.60;25.80;;;;;;8458684;28;20038;-56
2021/04/09 05:05:50;;;;;;;2.63;1.90;;;18.60;25.80;;;;;;8457099;28;20530;-56
2021/04/09 05:09:50;;;;;;;4.60;2.20;;;18.60;25.80;;;;;;8458420;28;20036;-56
2021/04/09 05:13:51;;;;;;;2.20;1.57;;;18.70;25.80;;;;;;8462932;28;20044;-56
2021/04/09 05:17:52;;;;;;;3.08;1.70;;;18.70;25.80;;;;;;8456542;28;20043;-57
2021/04/09 05:21:52;;;;;;;4.60;1.73;;;18.70;25.80;;;;;;8458580;28;20488;-57
2021/04/09 05:25:53;;;;;;;3.10;1.90;;;18.70;25.80;;;;;;8458175;28;20094;-57
2021/04/09 05:29:53;;;;;;;3.30;1.60;;;18.70;25.70;;;;;;8456206;28;20027;-57
2021/04/09 05:33:54;;;;;;;2.63;1.73;;;18.80;25.80;;;;;;8462649;28;20065;-57
2021/04/09 05:37:54;;;;;;;4.23;1.80;;;18.80;25.80;;;;;;8457673;28;20039;-57
2021/04/09 05:41:55;;;;;;;2.97;1.60;;;18.80;25.80;;;;;;8470882;28;20057;-57
2021/04/09 05:45:56;;;;;;;3.17;1.63;;;18.80;25.70;;;;;;8486330;28;20031;-57
2021/04/09 05:49:56;;;;;;;2.70;1.80;;;18.80;25.70;;;;;;8462205;28;20380;-57
2021/04/09 05:53:57;;;;;;;2.00;1.50;;;18.90;25.70;;;;;;8484496;28;20027;-56
2021/04/09 05:57:57;;;;;;;3.50;1.60;;;18.90;25.70;;;;;;8471900;28;20047;-57
2021/04/09 06:01:58;;;;;;;1.63;1.53;;;18.90;25.70;;;;;;8457647;28;20480;-56
2021/04/09 06:05:58;;;;;;;2.43;1.70;;;19.00;25.80;;;;;;8460240;28;20027;-57
2021/04/09 06:09:59;;;;;;;3.23;1.63;;;19.00;25.70;;;;;;8491450;27;20027;-57
2021/04/09 06:13:59;;;;;;;2.40;1.50;;;19.00;25.70;;;;;;8475473;27;20118;-56
2021/04/09 06:18:00;;;;;;;3.40;1.80;;;19.00;25.70;;;;;;8462195;28;20107;-56
2021/04/09 06:22:01;;;;;;;2.37;1.70;;;19.00;25.60;;;;;;8464126;28;20057;-56
2021/04/09 06:26:01;;;;;;;5.97;1.93;;;19.00;25.60;;;;;;8468203;28;20028;-56
2021/04/09 06:30:03;;;;;;;1.73;1.50;;;19.10;25.70;;;;;;8461810;28;20058;-56
2021/04/09 06:34:03;;;;;;;3.42;1.98;;;19.10;25.70;;;;;;8463426;28;20498;-56
2021/04/09 06:38:04;;;;;;;3.17;1.27;;;19.10;25.70;;;;;;8463114;28;20147;-56
2021/04/09 06:42:06;;;;;;;2.37;2.00;;;19.10;25.70;;;;;;8466146;28;20361;-56
2021/04/09 06:46:07;;;;;;;1.88;1.48;;;19.10;25.60;;;;;;8463070;28;20036;-56
2021/04/09 06:50:08;;;;;;;2.97;1.60;;;19.10;25.60;;;;;;8462877;28;20062;-56
2021/04/09 06:54:11;;;;;;;1.85;1.52;;;19.20;25.60;;;;;;8470982;27;20031;-56
2021/04/09 06:58:16;;;;;;;2.15;1.55;;;19.20;25.60;;;;;;8496997;27;20055;-57
2021/04/09 07:02:18;;;;;;;3.90;1.77;;;19.20;25.60;;;;;;8465204;28;20043;-56
2021/04/09 07:06:18;;;;;;;3.58;1.83;;;19.20;25.60;;;;;;8468505;27;20031;-57
2021/04/09 07:10:19;;;;;;;2.10;1.40;;;19.30;25.60;;;;;;8480759;27;20524;-56
2021/04/09 07:14:46;;;;;;;2.60;1.97;;;19.30;25.60;;;;;;8460575;28;20043;-56
2021/04/09 07:18:55;;;;;;;3.80;2.08;;;19.30;25.60;;;;;;8466383;28;20454;-56
2021/04/09 07:22:58;;;;;;;5.63;1.70;;;19.30;25.60;;;;;;8463056;28;20115;-56
2021/04/09 07:27:00;;;;;;;2.30;1.52;;;19.30;25.60;;;;;;8460300;28;20062;-56
2021/04/09 07:31:00;;;;;;;4.13;2.00;;;19.30;25.60;;;;;;8461917;28;20515;-56
2021/04/09 07:35:07;;;;;;;2.93;1.67;;;19.20;25.60;;;;;;8461740;28;20030;-57
2021/04/09 07:39:07;;;;;;;3.70;2.13;;;19.20;25.60;;;;;;8464696;28;20027;-57
2021/04/09 07:43:16;;;;;;;2.07;1.50;;;19.20;25.60;;;;;;8461080;28;20416;-57
2021/04/09 07:47:16;;;;;;;3.58;1.80;;;19.20;25.60;;;;;;8459711;28;20341;-54
2021/04/09 07:51:21;;;;;;;2.50;1.70;;;19.20;25.60;;;;;;8461240;28;20039;-56
2021/04/09 07:55:24;;;;;;;2.28;1.85;;;19.10;25.60;;;;;;8462003;28;20032;-58
2021/04/09 07:59:45;;;;;;;2.08;1.80;;;19.10;25.60;;;;;;8497565;27;20115;-56
2021/04/09 08:03:46;;;;;;;2.97;1.83;;;19.10;25.60;;;;;;8466657;27;20027;-57
2021/04/09 08:07:47;;;;;;;2.05;1.75;;;19.10;25.60;;;;;;8460548;28;20126;-57
2021/04/09 08:11:47;;;;;;;3.90;2.17;;;19.10;25.60;;;;;;8458830;28;20487;-57
2021/04/09 08:15:48;;;;;;;2.10;1.60;;;19.00;25.60;;;;;;8465238;28;20043;-57
2021/04/09 08:19:55;;;;;;;3.13;2.00;;;19.00;26.00;;;;;;8460319;28;20035;-56
2021/04/09 08:23:56;;;;;;;2.33;1.60;;;19.00;25.60;;;;;;8458354;28;20027;-56
2021/04/09 08:27:58;;;;;;;3.75;1.65;;;19.00;25.60;;;;;;8459783;28;20032;-57
2021/04/09 08:32:03;;;;;;;3.60;1.92;;;19.00;25.60;;;;;;8459988;28;20039;-57
2021/04/09 08:36:04;;;;;;;2.60;1.83;;;19.00;25.60;;;;;;8462226;28;20039;-57
2021/04/09 08:40:05;;;;;;;;;;;19.00;25.70;;;;;;8459752;28;20036;-56
2021/04/09 08:44:10;;;;;;;2.58;1.50;;;19.00;26.10;;;;;;8459225;28;19998;-57
2021/04/09 08:48:12;;;;;;;1.90;1.48;;;19.00;25.70;;;;;;8457238;28;20493;-57
2021/04/09 08:52:14;;;;;;;;;;;19.00;25.70;;;;;;8464011;28;20081;-57
2021/04/09 08:56:35;;;;;;;3.90;2.05;;;19.00;25.70;;;;;;8488928;27;19919;-57
2021/04/09 09:00:35;;;;;;;2.85;1.88;;;19.00;25.70;;;;;;8467184;27;20032;-57
2021/04/09 09:04:36;;;;;;;3.73;1.70;;;19.00;25.70;;;;;;8458689;28;20299;-57
2021/04/09 09:08:48;;;;;;;4.37;1.73;;;18.90;25.70;;;;;;8457649;27;20067;-57
2021/04/09 09:13:15;;;;;;;3.25;1.95;;;18.90;25.70;;;;;;8463140;28;20075;-57
2021/04/09 09:17:18;;;;;;;3.50;1.83;;;18.90;25.70;;;;;;8421823;28;20052;-53
2021/04/09 09:21:24;;;;;;;3.17;2.20;;;19.00;25.80;;;;;;8469954;27;20470;-57
2021/04/09 09:25:41;;;;;;;2.65;1.65;;;18.90;25.70;;;;;;8477956;27;20035;-57
2021/04/09 09:29:49;;;;;;;2.83;1.85;;;19.00;25.70;;;;;;8456934;28;20040;-57
2021/04/09 09:33:49;;;;;;;2.47;1.92;;;19.00;25.70;;;;;;8463186;28;20560;-56
2021/04/09 09:37:50;;;;;;;3.67;2.33;;;18.90;25.70;;;;;;8458084;28;20058;-56
2021/04/09 09:41:50;;;;;;;4.67;1.90;;;19.00;25.70;;;;;;8456953;28;20028;-57
2021/04/09 09:45:51;;;;;;;2.87;1.73;;;19.00;25.80;;;;;;8464138;27;20036;-57
2021/04/09 09:50:21;;;;;;;2.63;2.07;;;18.90;25.70;;;;;;8469257;27;20028;-57
2021/04/09 09:54:30;;;;;;;3.70;2.05;;;19.00;25.80;;;;;;8472245;28;20035;-57
2021/04/09 09:58:32;;;;;;;3.50;1.88;;;19.00;25.80;;;;;;8468910;27;20067;-57
2021/04/09 10:02:33;;;;;;;3.35;2.00;;;18.90;25.70;;;;;;8467456;27;20039;-57
2021/04/09 10:06:33;;;;;;;2.00;1.80;;;19.00;25.80;;;;;;8469280;27;20028;-58
2021/04/09 10:11:01;;;;;;;2.53;1.80;;;19.00;25.80;;;;;;8471019;28;20024;-57
2021/04/09 10:15:02;;;;;;;3.53;2.33;;;18.90;25.70;;;;;;8472126;28;20047;-57
2021/04/09 10:19:07;;;;;;;2.87;1.97;;;18.90;25.80;;;;;;8468607;27;20048;-57
2021/04/09 10:23:09;;;;;;;1.85;1.67;;;19.00;25.80;;;;;;8469487;27;20063;-56
2021/04/09 10:27:10;;;;;;;2.90;1.75;;;19.00;25.80;;;;;;8466886;27;20032;-57
2021/04/09 10:31:16;;;;;;;4.38;2.38;;;19.00;26.20;;;;;;8472756;28;20032;-57
2021/04/09 10:35:27;;;;;;;3.83;2.10;;;19.00;25.80;;;;;;8467140;27;20040;-53
2021/04/09 10:39:28;;;;;;;2.70;2.20;;;19.00;25.80;;;;;;8468255;27;20039;-57
2021/04/09 10:43:33;;;;;;;3.58;2.00;;;19.00;25.80;;;;;;8468776;27;20084;-56
2021/04/09 10:47:34;;;;;;;3.38;1.90;;;19.00;25.80;;;;;;8466425;27;20074;-56
2021/04/09 10:51:41;;;;;;;2.30;1.88;;;19.00;25.90;;;;;;8473060;28;20102;-57
2021/04/09 10:55:42;;;;;;;2.28;1.85;;;19.00;25.80;;;;;;8467124;27;20131;-57
2021/04/09 10:59:45;;;;;;;2.80;1.92;;;19.10;25.80;;;;;;8460984;28;20407;-57
2021/04/09 11:03:45;;;;;;;2.88;1.80;;;19.10;25.90;;;;;;8462992;28;20028;-55
2021/04/09 11:07:48;;;;;;;3.70;2.27;;;19.10;25.90;;;;;;8464566;28;20039;-57
2021/04/09 11:11:49;;;;;;;2.28;1.70;;;19.10;25.80;;;;;;8464309;28;20055;-57
2021/04/09 11:15:56;;;;;;;4.18;2.00;;;19.10;25.90;;;;;;8463050;28;20050;-57
2021/04/09 11:19:58;;;;;;;3.03;2.15;;;19.10;25.80;;;;;;8462149;28;20027;-56
2021/04/09 11:23:59;;;;;;;2.38;1.83;;;19.10;25.80;;;;;;8460697;28;20595;-56
2021/04/09 11:27:59;;;;;;;2.23;1.90;;;19.10;25.90;;;;;;8466269;28;20043;-57
2021/04/09 11:32:12;;;;;;;4.93;2.17;;;19.10;25.80;;;;;;8462045;28;20122;-56
2021/04/09 11:36:20;;;;;;;2.13;1.85;;;19.10;25.80;;;;;;8459831;28;20036;-56
2021/04/09 11:40:44;;;;;;;2.00;1.67;;;19.10;25.80;;;;;;8461416;28;20020;-56
2021/04/09 11:44:50;;;;;;;3.38;2.13;;;19.10;25.80;;;;;;8459879;28;20464;-56
2021/04/09 11:49:00;;;;;;;2.67;1.80;;;19.10;25.90;;;;;;8466119;28;20035;-56
2021/04/09 11:53:02;;;;;;;2.15;1.80;;;19.10;25.90;;;;;;8461361;28;20090;-57
2021/04/09 11:57:04;;;;;;;2.85;1.80;;;19.10;25.80;;;;;;8459184;28;20526;-57
2021/04/09 12:01:04;;;;;;;2.55;1.80;;;19.10;25.80;;;;;;8460617;28;20036;-57
2021/04/09 12:05:16;;;;;;;3.67;2.30;;;19.10;25.90;;;;;;8460619;28;20027;-57
2021/04/09 12:09:17;;;;;;;2.55;1.52;;;19.10;25.80;;;;;;8463134;28;20028;-57
2021/04/09 12:13:17;;;;;;;2.20;1.60;;;19.10;25.90;;;;;;8486241;27;20035;-57
2021/04/09 12:17:20;;;;;;;2.73;1.70;;;19.20;25.90;;;;;;8475815;27;20048;-57
2021/04/09 12:21:21;;;;;;;4.05;1.88;;;19.20;25.90;;;;;;8460523;27;20035;-57
2021/04/09 12:25:22;;;;;;;2.00;1.80;;;19.10;25.90;;;;;;8464326;28;20420;-56
2021/04/09 12:29:23;;;;;;;2.58;1.60;;;19.10;25.90;;;;;;8458315;28;20035;-57
2021/04/09 12:33:24;;;;;;;2.43;1.80;;;19.10;25.90;;;;;;8459564;28;20031;-58
2021/04/09 12:37:24;;;;;;;2.70;1.87;;;19.20;25.90;;;;;;8459438;28;20112;-57
2021/04/09 12:41:25;;;;;;;2.37;1.60;;;19.20;25.90;;;;;;8458686;27;20056;-58
2021/04/09 12:45:26;;;;;;;3.50;2.23;;;19.20;25.90;;;;;;8463051;28;20072;-57
2021/04/09 12:49:26;;;;;;;2.63;2.00;;;19.20;25.90;;;;;;8460088;27;20042;-56
2021/04/09 12:53:27;;;;;;;2.87;2.00;;;19.20;25.90;;;;;;8457865;28;20080;-58
2021/04/09 12:57:27;;;;;;;6.03;2.40;;;19.30;25.90;;;;;;8459137;28;20035;-58
2021/04/09 13:01:28;;;;;;;2.67;1.80;;;19.30;25.90;;;;;;8463581;28;20422;-57
2021/04/09 13:05:29;;;;;;;2.67;1.88;;;19.30;25.90;;;;;;8456849;28;20063;-57
2021/04/09 13:09:30;;;;;;;3.27;2.00;;;19.20;25.90;;;;;;8459241;28;20067;-57
2021/04/09 13:13:30;;;;;;;3.57;2.10;;;19.30;25.90;;;;;;8459392;27;20047;-57
2021/04/09 13:17:31;;;;;;;3.80;2.20;;;19.30;25.90;;;;;;8461288;28;20084;-57
2021/04/09 13:21:32;;;;;;;4.30;2.53;;;19.30;25.90;;;;;;8457624;28;20032;-57
2021/04/09 13:25:33;;;;;;;3.38;2.22;;;19.30;25.90;;;;;;8458449;28;20032;-57
2021/04/09 13:29:33;;;;;;;5.63;2.37;;;19.30;25.90;;;;;;8456531;28;20020;-58
2021/04/09 13:33:36;;;;;;;3.87;2.63;;;19.30;25.90;;;;;;8457721;28;20085;-57
2021/04/09 13:37:37;;;;;;;4.18;2.53;;;19.30;25.90;;;;;;8461746;28;20043;-57
2021/04/09 13:41:37;;;;;;;4.33;2.27;;;19.30;25.90;;;;;;8455648;27;20036;-49
2021/04/09 13:45:38;;;;;;;5.80;2.80;;;19.30;25.80;;;;;;8456964;28;20035;-55
2021/04/09 13:49:38;;;;;;;8.07;2.70;;;19.30;25.30;;;;;;8457194;28;20456;-57
2021/04/09 13:53:40;;;;;;;8.90;2.80;;;19.20;25.90;;;;;;8460016;28;20494;-56
2021/04/09 13:57:41;;;;;;;7.45;2.28;;;19.30;26.00;;;;;;8456613;28;20051;-56
2021/04/09 14:01:41;;;;;;;5.93;2.47;;;19.30;26.00;;;;;;8457707;28;20097;-56
2021/04/09 14:05:42;;;;;;;5.93;2.70;;;19.30;25.90;;;;;;8456004;28;20031;-57
2021/04/09 14:09:42;;;;;;;3.83;2.20;;;19.30;25.90;;;;;;8461515;28;20148;-57
2021/04/09 14:13:43;;;;;;;5.33;2.50;;;19.30;25.80;;;;;;8457363;28;20040;-57
2021/04/09 14:17:44;;;;;;;9.17;2.43;;;19.30;25.80;;;;;;8455733;28;20380;-56
2021/04/09 14:21:44;;;;;;;6.78;2.58;;;19.30;25.80;;;;;;8457343;28;20027;-56
2021/04/09 14:25:45;;;;;;;5.23;2.63;;;19.30;25.80;;;;;;8457590;28;20050;-56
2021/04/09 14:29:46;;;;;;;3.92;2.00;;;19.30;25.80;;;;;;8459996;28;20040;-56
2021/04/09 14:33:46;;;;;;;5.30;2.73;;;19.30;25.80;;;;;;8464302;28;20122;-56
2021/04/09 14:37:47;;;;;;;5.40;2.47;;;19.30;25.80;;;;;;8463535;28;20487;-56
2021/04/09 14:41:47;;;;;;;3.57;2.30;;;19.30;25.80;;;;;;8461731;28;20032;-56
2021/04/09 14:45:48;;;;;;;8.30;2.50;;;19.30;25.80;;;;;;8467890;28;20394;-56
2021/04/09 14:49:50;;;;;;;6.30;2.17;;;19.30;25.80;;;;;;8463115;28;20492;-56
2021/04/09 14:53:51;;;;;;;8.57;2.70;;;19.30;25.80;;;;;;8461114;28;20036;-56
2021/04/09 14:57:51;;;;;;;8.03;2.00;;;19.30;26.20;;;;;;8463563;27;20071;-56
2021/04/09 15:01:52;;;;;;;4.20;2.20;;;19.30;25.80;;;;;;8463819;28;20027;-57
2021/04/09 15:05:52;;;;;;;4.97;2.57;;;19.30;25.80;;;;;;8464061;28;20464;-56
2021/04/09 15:09:53;;;;;;;6.13;2.10;;;19.30;25.80;;;;;;8462635;28;20079;-55
2021/04/09 15:13:53;;;;;;;6.07;2.47;;;19.40;25.90;;;;;;8462609;28;20035;-56
2021/04/09 15:17:54;;;;;;;5.93;2.40;;;19.40;25.90;;;;;;8460254;28;20182;-55
2021/04/09 15:21:56;;;;;;;4.80;2.17;;;19.50;25.90;;;;;;8466442;28;20031;-55
2021/04/09 15:25:57;;;;;;;3.60;2.22;;;19.50;25.80;;;;;;8489277;27;20039;-55
2021/04/09 15:29:57;;;;;;;4.37;2.10;;;19.60;25.80;;;;;;8475542;27;20039;-56
2021/04/09 15:33:58;;;;;;;2.47;1.93;;;19.60;25.80;;;;;;8461741;28;20403;-55
2021/04/09 15:37:58;;;;;;;3.70;1.90;;;19.60;25.80;;;;;;8465954;28;20492;-54
2021/04/09 15:41:59;;;;;;;3.53;1.70;;;19.60;25.80;;;;;;8459388;28;20076;-55
2021/04/09 15:46:00;;;;;;;5.90;2.13;;;19.70;25.80;;;;;;8462078;27;20036;-56
2021/04/09 15:50:00;;;;;;;4.60;2.77;;;19.70;25.70;;;;;;8462034;27;20418;-56
2021/04/09 15:54:01;;;;;;;3.97;2.47;;;19.80;25.80;;;;;;8459595;27;20172;-57
2021/04/09 15:58:03;;;;;;;4.27;2.33;;;19.80;25.80;;;;;;8466192;28;20047;-59
2021/04/09 16:02:03;;;;;;;7.75;3.78;;;19.80;25.70;;;;;;8461059;28;20043;-56
2021/04/09 16:06:04;;;;;;;9.10;4.07;;;19.80;25.70;;;;;;8458788;28;20047;-56
2021/04/09 16:10:05;;;;;;;7.27;3.47;;;19.90;25.70;;;;;;8460668;28;20031;-56
2021/04/09 16:14:06;;;;;;;7.43;2.97;;;19.90;25.70;;;;;;8465344;28;20037;-55
2021/04/09 16:18:10;;;;;;;4.87;3.30;;;19.90;25.70;;;;;;8487506;27;20059;-56
2021/04/09 16:22:11;;;;;;;5.82;3.42;;;20.00;25.70;;;;;;8474099;27;20491;-57
2021/04/09 16:26:12;;;;;;;4.93;2.80;;;20.00;25.70;;;;;;8460106;28;20077;-57
2021/04/09 16:30:17;;;;;;;5.73;3.00;;;20.00;25.70;;;;;;8461300;28;20036;-57
2021/04/09 16:34:18;;;;;;;5.30;3.05;;;20.00;25.70;;;;;;8462823;28;20407;-57
2021/04/09 16:38:19;;;;;;;5.90;3.80;;;20.00;25.70;;;;;;8458400;28;20126;-56
2021/04/09 16:42:19;;;;;;;4.80;2.90;;;20.10;25.80;;;;;;8460572;27;20031;-57
2021/04/09 16:46:20;;;;;;;6.93;3.00;;;20.10;26.20;;;;;;8459445;28;20036;-57
2021/04/09 16:50:21;;;;;;;5.37;3.30;;;20.10;25.70;;;;;;8462167;28;20046;-56
2021/04/09 16:54:22;;;;;;;4.60;2.95;;;20.10;25.70;;;;;;8458557;28;20028;-56
2021/04/09 16:58:24;;;;;;;4.32;2.58;;;20.10;25.70;;;;;;8458991;28;20040;-56
2021/04/09 17:02:24;;;;;;;5.72;3.15;;;20.10;25.70;;;;;;8457605;28;20036;-55
2021/04/09 17:06:27;;;;;;;4.87;3.23;;;20.10;25.70;;;;;;8463555;28;20083;-56
2021/04/09 17:10:29;;;;;;;4.05;2.70;;;20.10;25.70;;;;;;8458985;28;20084;-56
2021/04/09 17:14:30;;;;;;;4.82;2.72;;;20.20;25.70;;;;;;8457071;28;20044;-56
2021/04/09 17:18:30;;;;;;;5.00;3.10;;;20.20;25.70;;;;;;8458778;28;20124;-56
2021/04/09 17:22:31;;;;;;;5.83;2.73;;;20.20;25.70;;;;;;8458470;28;20020;-56
2021/04/09 17:26:32;;;;;;;3.33;2.35;;;20.20;25.70;;;;;;8461423;28;20062;-56
2021/04/09 17:30:32;;;;;;;3.10;2.50;;;20.20;25.70;;;;;;8458639;28;20126;-56
2021/04/09 17:34:33;;;;;;;4.83;2.90;;;20.20;25.70;;;;;;8474394;27;20179;-56
2021/04/09 17:38:34;;;;;;;3.20;2.37;;;20.20;25.70;;;;;;8484092;27;20046;-57
2021/04/09 17:42:35;;;;;;;5.20;3.15;;;20.20;25.70;;;;;;8462484;28;20031;-56
2021/04/09 17:46:37;;;;;;;5.75;3.40;;;20.30;25.80;;;;;;8457779;28;20036;-56
2021/04/09 17:50:38;;;;;;;6.15;3.35;;;20.30;25.80;;;;;;8476657;28;20039;-56
2021/04/09 17:54:40;;;;;;;5.97;3.40;;;20.20;25.70;;;;;;8491512;28;20107;-56
2021/04/09 17:58:41;;;;;;;6.88;3.83;;;20.30;25.80;;;;;;8492325;27;20039;-56
2021/04/09 18:02:42;;;;;;;4.43;3.08;;;20.30;25.80;;;;;;8459310;28;20035;-56
2021/04/09 18:06:43;;;;;;;;;;;20.30;25.80;;;;;;8461441;28;20492;-55
2021/04/09 18:10:44;;;;;;;5.50;3.67;;;20.30;25.80;;;;;;8464617;28;19919;-55
2021/04/09 18:14:45;;;;;;;5.63;3.85;;;20.30;25.80;;;;;;8466398;27;20043;-55
2021/04/09 18:18:45;;;;;;;6.15;3.65;;;20.30;25.80;;;;;;8502776;27;20039;-55
2021/04/09 18:22:47;;;;;;;6.10;3.50;;;20.30;25.80;;;;;;8470299;27;20043;-56
2021/04/09 18:26:49;;;;;;;6.82;3.70;;;20.30;25.80;;;;;;8462496;28;20058;-56
2021/04/09 18:30:52;;;;;;;7.32;4.25;;;20.40;25.90;;;;;;8463836;28;20387;-56
2021/04/09 18:34:53;;;;;;;7.80;4.25;;;20.40;25.90;;;;;;8468146;28;20518;-56
2021/04/09 18:38:54;;;;;;;9.87;4.60;;;20.40;25.90;;;;;;8461965;27;20039;-56
2021/04/09 18:42:54;;;;;;;7.87;4.57;;;20.40;25.90;;;;;;8464033;28;20080;-56
2021/04/09 18:46:55;;;;;;;9.27;5.63;;;20.40;25.90;;;;;;8463608;28;20084;-57
2021/04/09 18:50:55;;;;;;;7.97;5.23;;;20.40;25.90;;;;;;8461406;28;20040;-57
2021/04/09 18:54:56;;;;;;;7.50;4.23;;;20.40;25.90;;;;;;8467484;28;20043;-57
2021/04/09 18:58:56;;;;;;;7.80;4.13;;;20.50;25.90;;;;;;8462970;28;20492;-56
2021/04/09 19:02:57;;;;;;;6.77;4.30;;;20.40;25.90;;;;;;8461152;28;20114;-57
2021/04/09 19:06:58;;;;;;;7.00;4.40;;;20.50;25.90;;;;;;8463087;28;20032;-56
2021/04/09 19:10:58;;;;;;;6.57;4.07;;;20.50;25.90;;;;;;8467189;28;20165;-56
2021/04/09 19:14:59;;;;;;;5.30;3.67;;;20.50;25.90;;;;;;8489708;27;20034;-56
2021/04/09 19:19:00;;;;;;;7.03;3.78;;;20.50;25.90;;;;;;8474490;27;20492;-57
2021/04/09 19:23:01;;;;;;;6.70;4.22;;;20.50;25.90;;;;;;8462300;28;20035;-56
2021/04/09 19:27:01;;;;;;;5.90;4.00;;;20.50;25.90;;;;;;8464466;28;20094;-56
2021/04/09 19:31:02;;;;;;;6.53;3.83;;;20.60;25.90;;;;;;8463138;28;20035;-57
2021/04/09 19:35:04;;;;;;;8.13;4.45;;;20.50;25.90;;;;;;8484800;27;20049;-57
2021/04/09 19:39:05;;;;;;;6.95;4.07;;;20.60;26.00;;;;;;8479837;27;20134;-57
2021/04/09 19:43:06;;;;;;;4.72;3.47;;;20.60;26.00;;;;;;8461532;28;20019;-55
2021/04/09 19:47:07;;;;;;;6.47;3.80;;;20.60;26.00;;;;;;8465967;28;20039;-57
2021/04/09 19:51:07;;;;;;;5.65;3.30;;;20.60;26.00;;;;;;8459922;28;20143;-57
2021/04/09 19:55:09;;;;;;;6.63;3.47;;;20.60;26.00;;;;;;8461279;28;20095;-57
2021/04/09 19:59:09;;;;;;;5.10;3.40;;;20.60;26.00;;;;;;8460867;28;20476;-57
2021/04/09 20:03:10;;;;;;;5.80;3.57;;;20.60;26.00;;;;;;8463745;28;20080;-57
2021/04/09 20:07:11;;;;;;;6.70;3.13;;;20.60;26.00;;;;;;8461162;28;20032;-57
2021/04/09 20:11:12;;;;;;;7.13;4.27;;;20.60;25.90;;;;;;8460815;28;20035;-57
2021/04/09 20:15:14;;;;;;;6.18;3.30;;;20.60;26.00;;;;;;8469652;27;20100;-57
2021/04/09 20:19:14;;;;;;;4.70;3.35;;;20.60;25.90;;;;;;8492847;27;20035;-57
2021/04/09 20:23:15;;;;;;;6.27;3.83;;;20.60;25.90;;;;;;8464767;28;20039;-58
2021/04/09 20:27:15;;;;;;;6.50;3.43;;;20.60;25.90;;;;;;8458634;28;20032;-57
2021/04/09 20:31:16;;;;;;;5.93;3.70;;;20.60;26.00;;;;;;8459685;28;20030;-57
2021/04/09 20:35:16;;;;;;;5.37;3.43;;;20.60;26.00;;;;;;8458447;28;20036;-56
2021/04/09 20:39:17;;;;;;;5.47;3.50;;;20.60;26.00;;;;;;8463958;28;20086;-57
2021/04/09 20:43:18;;;;;;;4.73;3.17;;;20.60;26.00;;;;;;8459915;28;20050;-57
2021/04/09 20:47:19;;;;;;;4.67;3.20;;;20.60;26.00;;;;;;8458647;28;20027;-57
2021/04/09 20:51:20;;;;;;;5.30;3.35;;;20.60;26.00;;;;;;8458882;28;20035;-57
2021/04/09 20:55:20;;;;;;;6.00;3.60;;;20.50;26.00;;;;;;8463790;28;20449;-57
2021/04/09 20:59:21;;;;;;;6.97;3.57;;;20.50;26.00;;;;;;8457286;28;20039;-55
2021/04/09 21:03:21;;;;;;;4.60;3.00;;;20.50;26.00;;;;;;8481310;27;20035;-57